createdAt,value
2022-08-20T00:03:04.332Z,44.27
2022-08-20T00:06:11.320Z,44.11
2022-08-20T00:09:14.691Z,43.99
2022-08-20T00:12:19.479Z,43.84
2022-08-20T00:15:28.576Z,44.87
2022-08-20T00:18:32.100Z,44.80
2022-08-20T00:21:36.678Z,44.50
2022-08-20T00:24:39.999Z,44.28
2022-08-20T00:27:44.763Z,44.35
2022-08-20T00:30:49.626Z,44.70
2022-08-20T00:33:53.620Z,44.55
2022-08-20T00:36:57.051Z,44.55
2022-08-20T00:40:00.901Z,44.30
2022-08-20T00:43:08.317Z,45.26
2022-08-20T00:46:14.235Z,45.35
2022-08-20T00:49:22.239Z,45.72
2022-08-20T00:52:25.651Z,46.43
2022-08-20T00:55:31.647Z,47.21
2022-08-20T00:58:38.508Z,46.28
2022-08-20T01:01:55.192Z,46.56
2022-08-20T01:05:00.218Z,47.20
2022-08-20T01:08:04.640Z,47.51
2022-08-20T01:11:10.418Z,47.36
2022-08-20T01:14:31.811Z,48.10
2022-08-20T01:17:38.026Z,48.22
2022-08-20T01:20:44.399Z,48.46
2022-08-20T01:23:53.232Z,47.33
2022-08-20T01:26:58.352Z,47.96
2022-08-20T01:30:06.945Z,48.16
2022-08-20T01:33:10.754Z,48.23
2022-08-20T01:36:16.737Z,48.61
2022-08-20T01:39:24.000Z,49.32
2022-08-20T01:42:37.557Z,47.88
2022-08-20T01:45:57.238Z,49.23
2022-08-20T01:49:13.534Z,49.33
2022-08-20T01:52:26.170Z,50.93
2022-08-20T01:55:29.529Z,50.97
2022-08-20T01:58:37.028Z,51.52
2022-08-20T02:01:46.752Z,49.89
2022-08-20T02:04:50.408Z,49.89
2022-08-20T02:07:53.689Z,50.46
2022-08-20T02:10:57.372Z,50.41
2022-08-20T02:14:02.373Z,50.03
2022-08-20T02:17:10.050Z,49.28
2022-08-20T02:20:17.089Z,48.76
2022-08-20T02:23:20.808Z,48.98
2022-08-20T02:26:24.605Z,49.63
2022-08-20T02:29:29.435Z,49.74
2022-08-20T02:32:34.396Z,50.70
2022-08-20T02:35:38.872Z,50.47
2022-08-20T02:38:42.881Z,51.69
2022-08-20T02:41:46.799Z,51.03
2022-08-20T02:44:51.849Z,51.52
2022-08-20T02:47:56.904Z,51.18
2022-08-20T02:51:03.887Z,50.63
2022-08-20T02:54:07.365Z,50.02
2022-08-20T02:57:14.036Z,49.60
2022-08-20T03:00:22.853Z,49.69
2022-08-20T03:03:26.720Z,49.45
2022-08-20T03:06:30.648Z,48.55
2022-08-20T03:09:34.530Z,48.37
2022-08-20T03:12:38.507Z,47.74
2022-08-20T03:15:46.691Z,47.76
2022-08-20T03:18:52.067Z,47.79
2022-08-20T03:21:55.725Z,47.70
2022-08-20T03:24:59.130Z,48.14
2022-08-20T03:28:02.785Z,48.69
2022-08-20T03:31:07.634Z,48.08
2022-08-20T03:34:10.969Z,47.66
2022-08-20T03:37:14.469Z,47.33
2022-08-20T03:40:23.540Z,47.45
2022-08-20T03:43:26.916Z,47.00
2022-08-20T03:46:31.786Z,47.55
2022-08-20T03:49:35.727Z,48.25
2022-08-20T03:52:39.252Z,47.95
2022-08-20T03:55:45.345Z,48.07
2022-08-20T03:58:48.799Z,47.01
2022-08-20T04:01:54.847Z,46.83
2022-08-20T04:04:58.189Z,46.36
2022-08-20T04:08:03.127Z,46.02
2022-08-20T04:11:07.119Z,45.43
2022-08-20T04:14:11.682Z,47.21
2022-08-20T04:17:22.119Z,47.51
2022-08-20T04:20:26.522Z,47.82
2022-08-20T04:23:30.218Z,49.62
2022-08-20T04:26:37.357Z,48.47
2022-08-20T04:29:43.159Z,48.94
2022-08-20T04:32:48.983Z,49.31
2022-08-20T04:35:53.390Z,49.06
2022-08-20T04:38:56.919Z,49.32
2022-08-20T04:42:00.443Z,48.80
2022-08-20T04:45:03.868Z,49.03
2022-08-20T04:48:14.262Z,48.62
2022-08-20T04:51:18.902Z,48.22
2022-08-20T04:54:22.376Z,48.67
2022-08-20T04:57:26.657Z,47.34
2022-08-20T05:00:32.969Z,46.81
2022-08-20T05:03:39.099Z,47.32
2022-08-20T05:06:42.423Z,46.25
2022-08-20T05:09:46.579Z,47.16
2022-08-20T05:12:55.105Z,46.47
2022-08-20T05:16:01.415Z,45.48
2022-08-20T05:19:06.512Z,46.84
2022-08-20T05:22:10.115Z,45.96
2022-08-20T05:25:13.985Z,46.48
2022-08-20T05:28:20.516Z,46.31
2022-08-20T05:31:23.887Z,45.84
2022-08-20T05:34:37.460Z,44.15
2022-08-20T05:37:42.369Z,43.46
2022-08-20T05:40:46.814Z,43.11
2022-08-20T05:43:51.526Z,43.44
2022-08-20T05:46:55.003Z,42.41
2022-08-20T05:49:59.912Z,42.43
2022-08-20T05:53:03.321Z,42.19
2022-08-20T05:56:07.055Z,41.98
2022-08-20T05:59:12.630Z,41.30
2022-08-20T06:02:33.800Z,41.19
2022-08-20T06:05:38.607Z,41.48
2022-08-20T06:08:42.226Z,41.60
2022-08-20T06:11:45.535Z,41.67
2022-08-20T06:14:48.895Z,42.04
2022-08-20T06:17:58.189Z,41.46
2022-08-20T06:21:03.435Z,41.38
2022-08-20T06:24:07.963Z,41.95
2022-08-20T06:27:15.742Z,40.25
2022-08-20T06:30:19.099Z,41.01
2022-08-20T06:33:22.508Z,42.22
2022-08-20T06:36:27.489Z,41.19
2022-08-20T06:39:31.296Z,41.54
2022-08-20T06:42:34.680Z,40.35
2022-08-20T06:45:39.177Z,41.76
2022-08-20T06:48:43.492Z,40.55
2022-08-20T06:51:50.069Z,39.92
2022-08-20T06:54:55.491Z,39.45
2022-08-20T06:57:59.890Z,40.62
2022-08-20T07:01:09.395Z,40.14
2022-08-20T07:04:13.682Z,40.05
2022-08-20T07:07:20.696Z,40.46
2022-08-20T07:10:25.874Z,40.76
2022-08-20T07:13:29.494Z,40.13
2022-08-20T07:16:33.313Z,40.21
2022-08-20T07:19:37.932Z,39.62
2022-08-20T07:22:43.597Z,40.01
2022-08-20T07:25:48.656Z,39.57
2022-08-20T07:28:52.172Z,39.38
2022-08-20T07:32:12.658Z,38.79
2022-08-20T07:35:18.458Z,38.73
2022-08-20T07:38:26.698Z,38.13
2022-08-20T07:41:30.051Z,37.85
2022-08-20T07:44:33.514Z,38.61
2022-08-20T07:47:36.856Z,37.59
2022-08-20T07:50:42.997Z,36.74
2022-08-20T07:53:48.981Z,36.49
2022-08-20T07:56:52.881Z,36.43
2022-08-20T07:59:56.428Z,36.11
2022-08-20T08:03:00.240Z,35.77
2022-08-20T08:06:03.567Z,36.63
2022-08-20T08:09:11.048Z,36.63
2022-08-20T08:12:15.221Z,38.04
2022-08-20T08:15:22.736Z,37.38
2022-08-20T08:18:31.904Z,37.44
2022-08-20T08:21:35.798Z,38.76
2022-08-20T08:24:41.787Z,38.25
2022-08-20T08:28:01.066Z,36.98
2022-08-20T08:31:04.416Z,36.89
2022-08-20T08:34:07.769Z,37.06
2022-08-20T08:37:11.219Z,37.05
2022-08-20T08:40:16.034Z,37.77
2022-08-20T08:43:21.537Z,35.82
2022-08-20T08:46:27.977Z,36.03
2022-08-20T08:49:37.984Z,35.95
2022-08-20T08:52:42.259Z,36.15
2022-08-20T08:55:47.054Z,36.36
2022-08-20T08:58:50.457Z,35.91
2022-08-20T09:01:57.673Z,34.88
2022-08-20T09:05:04.321Z,34.73
2022-08-20T09:08:16.876Z,34.92
2022-08-20T09:11:25.001Z,34.60
2022-08-20T09:14:28.286Z,34.19
2022-08-20T09:17:31.905Z,33.51
2022-08-20T09:20:35.557Z,34.30
2022-08-20T09:23:39.384Z,33.61
2022-08-20T09:26:44.982Z,34.35
2022-08-20T09:29:49.358Z,33.20
2022-08-20T09:32:52.819Z,32.79
2022-08-20T09:35:56.212Z,33.03
2022-08-20T09:38:59.556Z,34.35
2022-08-20T09:42:14.936Z,34.09
2022-08-20T09:45:18.876Z,33.18
2022-08-20T09:48:22.138Z,33.22
2022-08-20T09:51:35.531Z,33.38
2022-08-20T09:54:46.471Z,33.05
2022-08-20T09:57:52.657Z,33.44
2022-08-20T10:00:56.045Z,33.28
2022-08-20T10:03:59.326Z,33.05
2022-08-20T10:07:02.758Z,32.67
2022-08-20T10:10:07.492Z,33.66
2022-08-20T10:13:13.243Z,33.13
2022-08-20T10:16:18.708Z,32.98
2022-08-20T10:19:21.997Z,32.55
2022-08-20T10:22:28.099Z,32.75
2022-08-20T10:25:31.675Z,32.93
2022-08-20T10:28:36.808Z,32.52
2022-08-20T10:31:40.179Z,32.26
2022-08-20T10:34:46.066Z,31.84
2022-08-20T10:37:49.488Z,32.08
2022-08-20T10:40:52.805Z,31.70
2022-08-20T10:43:57.542Z,32.16
2022-08-20T10:47:14.755Z,31.74
2022-08-20T10:50:20.203Z,31.01
2022-08-20T10:53:23.735Z,30.44
2022-08-20T10:56:27.275Z,29.98
2022-08-20T10:59:32.350Z,29.51
2022-08-20T11:02:35.747Z,29.19
2022-08-20T11:05:39.429Z,29.29
2022-08-20T11:08:42.750Z,29.01
2022-08-20T11:11:46.083Z,29.69
2022-08-20T11:14:52.334Z,28.58
2022-08-20T11:17:56.567Z,29.17
2022-08-20T11:21:00.677Z,29.19
2022-08-20T11:24:04.789Z,28.15
2022-08-20T11:27:08.889Z,28.82
2022-08-20T11:30:16.438Z,28.50
2022-08-20T11:33:19.833Z,28.42
2022-08-20T11:36:27.016Z,28.75
2022-08-20T11:39:30.349Z,28.14
2022-08-20T11:42:33.627Z,28.64
2022-08-20T11:45:38.394Z,28.33
2022-08-20T11:48:41.685Z,28.29
2022-08-20T11:51:49.602Z,28.57
2022-08-20T11:54:54.836Z,28.51
2022-08-20T11:57:59.666Z,28.89
2022-08-20T12:01:05.463Z,28.84
2022-08-20T12:04:08.870Z,28.67
2022-08-20T12:07:13.411Z,28.25
2022-08-20T12:10:17.224Z,28.07
2022-08-20T12:13:20.560Z,28.02
2022-08-20T12:16:28.302Z,27.40
2022-08-20T12:19:31.584Z,28.03
2022-08-20T12:22:35.050Z,27.77
2022-08-20T12:25:38.341Z,27.55
2022-08-20T12:28:41.697Z,27.52
2022-08-20T12:31:46.500Z,26.98
2022-08-20T12:34:50.678Z,27.09
2022-08-20T12:37:54.427Z,27.11
2022-08-20T12:40:57.756Z,27.88
2022-08-20T12:44:07.088Z,28.09
2022-08-20T12:47:20.302Z,28.20
2022-08-20T12:50:30.914Z,28.11
2022-08-20T12:53:34.813Z,27.77
2022-08-20T12:56:38.100Z,27.15
2022-08-20T12:59:41.488Z,26.93
2022-08-20T13:02:46.323Z,27.27
2022-08-20T13:05:50.372Z,27.06
2022-08-20T13:08:53.692Z,27.08
2022-08-20T13:11:57.135Z,26.63
2022-08-20T13:15:00.513Z,26.43
2022-08-20T13:18:07.153Z,26.95
2022-08-20T13:21:10.501Z,26.81
2022-08-20T13:24:13.814Z,26.62
2022-08-20T13:27:22.789Z,26.19
2022-08-20T13:30:26.749Z,25.90
2022-08-20T13:33:31.982Z,26.12
2022-08-20T13:36:35.831Z,26.56
2022-08-20T13:39:40.303Z,27.28
2022-08-20T13:42:43.727Z,27.51
2022-08-20T13:45:47.044Z,27.93
2022-08-20T13:48:51.814Z,27.43
2022-08-20T13:51:55.124Z,27.75
2022-08-20T13:54:58.370Z,26.75
2022-08-20T13:58:06.796Z,26.12
2022-08-20T14:01:10.112Z,26.43
2022-08-20T14:04:14.887Z,25.97
2022-08-20T14:07:20.989Z,25.83
2022-08-20T14:10:31.379Z,26.39
2022-08-20T14:13:34.915Z,25.86
2022-08-20T14:16:39.888Z,25.53
2022-08-20T14:19:45.410Z,25.51
2022-08-20T14:22:48.998Z,25.47
2022-08-20T14:25:52.279Z,26.02
2022-08-20T14:28:55.657Z,25.29
2022-08-20T14:31:58.948Z,25.54
2022-08-20T14:35:03.782Z,25.44
2022-08-20T14:38:07.488Z,25.12
2022-08-20T14:41:10.776Z,25.31
2022-08-20T14:44:14.077Z,25.32
2022-08-20T14:47:20.825Z,25.51
2022-08-20T14:50:29.071Z,25.81
2022-08-20T14:53:32.385Z,25.55
2022-08-20T14:56:35.696Z,25.77
2022-08-20T14:59:39.201Z,25.40
2022-08-20T15:02:42.580Z,25.23
2022-08-20T15:05:47.311Z,25.85
2022-08-20T15:08:53.649Z,25.96
2022-08-20T15:11:57.010Z,25.70
2022-08-20T15:15:13.386Z,25.91
2022-08-20T15:18:19.351Z,26.00
2022-08-20T15:21:24.045Z,26.50
2022-08-20T15:24:27.365Z,26.65
2022-08-20T15:27:30.643Z,26.68
2022-08-20T15:30:33.971Z,27.07
2022-08-20T15:33:37.467Z,26.50
2022-08-20T15:36:42.198Z,26.39
2022-08-20T15:39:46.553Z,27.07
2022-08-20T15:42:50.062Z,26.99
2022-08-20T15:45:53.492Z,27.68
2022-08-20T15:48:56.935Z,27.15
2022-08-20T15:52:01.768Z,27.54
2022-08-20T15:55:07.094Z,27.45
2022-08-20T15:58:19.606Z,27.65
2022-08-20T16:01:33.838Z,28.41
2022-08-20T16:05:01.522Z,27.50
2022-08-20T16:08:17.185Z,28.49
2022-08-20T16:11:42.855Z,28.05
2022-08-20T16:14:52.120Z,32.89
2022-08-20T16:18:04.183Z,34.53
2022-08-20T16:21:13.438Z,36.05
2022-08-20T16:24:20.015Z,37.20
2022-08-20T16:27:33.271Z,37.58
2022-08-20T16:30:42.124Z,38.46
2022-08-20T16:33:59.252Z,38.57
2022-08-20T16:37:11.572Z,38.61
2022-08-20T16:40:23.758Z,40.15
2022-08-20T16:43:33.508Z,41.11
2022-08-20T16:46:41.270Z,40.46
2022-08-20T16:49:50.357Z,40.52
2022-08-20T16:52:54.346Z,40.96
2022-08-20T16:55:59.074Z,41.52
2022-08-20T16:59:07.217Z,41.54
2022-08-20T17:02:12.429Z,41.83
2022-08-20T17:05:15.932Z,41.66
2022-08-20T17:08:29.930Z,41.74
2022-08-20T17:11:35.894Z,41.78
2022-08-20T17:14:50.073Z,42.05
2022-08-20T17:17:55.796Z,44.15
2022-08-20T17:21:03.672Z,44.85
2022-08-20T17:24:16.579Z,45.20
2022-08-20T17:27:37.777Z,44.28
2022-08-20T17:30:42.295Z,45.07
2022-08-20T17:33:46.640Z,45.30
2022-08-20T17:36:54.618Z,46.03
2022-08-20T17:40:10.624Z,45.58
2022-08-20T17:43:27.535Z,45.50
2022-08-20T17:46:43.938Z,46.28
2022-08-20T17:50:02.164Z,46.75
2022-08-20T17:53:14.777Z,47.09
2022-08-20T17:56:22.788Z,46.83
2022-08-20T17:59:47.697Z,47.11
2022-08-20T18:03:00.444Z,46.98
2022-08-20T18:06:09.502Z,47.25
2022-08-20T18:09:18.409Z,47.10
2022-08-20T18:12:34.227Z,47.56
2022-08-20T18:15:50.760Z,47.43
2022-08-20T18:18:58.674Z,47.29
2022-08-20T18:22:12.042Z,47.50
2022-08-20T18:25:26.405Z,48.14
2022-08-20T18:28:38.364Z,48.47
2022-08-20T18:31:48.756Z,49.71
2022-08-20T18:34:52.843Z,49.51
2022-08-20T18:37:56.155Z,49.97
2022-08-20T18:41:11.541Z,49.16
2022-08-20T18:44:16.954Z,50.39
2022-08-20T18:47:25.089Z,49.95
2022-08-20T18:50:42.942Z,51.20
2022-08-20T18:53:51.810Z,50.60
2022-08-20T18:57:05.524Z,53.06
2022-08-20T19:00:13.251Z,55.34
2022-08-20T19:03:22.744Z,55.94
2022-08-20T19:06:43.057Z,56.91
2022-08-20T19:10:03.000Z,56.65
2022-08-20T19:13:28.872Z,58.36
2022-08-20T19:16:38.271Z,56.51
2022-08-20T19:19:43.057Z,57.13
2022-08-20T19:22:48.054Z,57.70
2022-08-20T19:25:55.740Z,58.61
2022-08-20T19:29:01.976Z,59.68
2022-08-20T19:32:08.836Z,61.39
2022-08-20T19:35:18.907Z,64.12
2022-08-20T19:38:22.708Z,65.07
2022-08-20T19:41:31.451Z,63.66
2022-08-20T19:44:42.025Z,64.55
2022-08-20T19:47:58.565Z,61.03
2022-08-20T19:51:10.271Z,61.10
2022-08-20T19:54:21.012Z,62.82
2022-08-20T19:57:27.290Z,60.00
2022-08-20T20:00:39.168Z,60.14
2022-08-20T20:03:43.105Z,59.74
2022-08-20T20:06:50.089Z,61.69
2022-08-20T20:09:56.677Z,62.26
2022-08-20T20:13:06.866Z,61.42
2022-08-20T20:16:10.430Z,61.14
2022-08-20T20:19:26.447Z,60.55
2022-08-20T20:22:34.346Z,61.97
2022-08-20T20:25:41.512Z,62.21
2022-08-20T20:28:47.371Z,62.30
2022-08-20T20:31:53.967Z,62.22
2022-08-20T20:35:00.061Z,61.58
2022-08-20T20:38:08.126Z,61.26
2022-08-20T20:41:21.667Z,63.40
2022-08-20T20:44:28.332Z,62.36
2022-08-20T20:47:35.965Z,61.30
2022-08-20T20:50:40.158Z,60.75
2022-08-20T20:53:54.867Z,58.39
2022-08-20T20:57:04.064Z,62.00
2022-08-20T21:00:12.725Z,63.91
2022-08-20T21:03:16.092Z,65.73
2022-08-20T21:06:20.988Z,68.20
2022-08-20T21:09:27.586Z,68.69
2022-08-20T21:12:31.024Z,71.54
2022-08-20T21:15:35.239Z,71.57
2022-08-20T21:18:38.715Z,70.89
2022-08-20T21:21:43.851Z,73.20
2022-08-20T21:24:51.533Z,74.34
2022-08-20T21:27:55.099Z,75.39
2022-08-20T21:30:58.650Z,74.84
2022-08-20T21:34:02.207Z,79.20
2022-08-20T21:37:05.522Z,78.28
2022-08-20T21:40:12.173Z,79.40
2022-08-20T21:43:15.706Z,79.98
2022-08-20T21:46:25.013Z,81.30
2022-08-20T21:49:30.407Z,80.97
2022-08-20T21:52:35.447Z,79.74
2022-08-20T21:55:41.404Z,78.17
2022-08-20T21:58:47.517Z,74.96
2022-08-20T22:01:51.218Z,72.50
2022-08-20T22:04:54.586Z,72.09
2022-08-20T22:07:57.884Z,72.45
2022-08-20T22:11:03.309Z,72.74
2022-08-20T22:14:09.484Z,75.67
2022-08-20T22:17:12.920Z,78.30
2022-08-20T22:20:16.232Z,78.10
2022-08-20T22:23:19.686Z,78.87
2022-08-20T22:26:27.301Z,76.54
2022-08-20T22:29:30.763Z,75.93
2022-08-20T22:32:46.871Z,75.29
2022-08-20T22:35:57.855Z,77.54
2022-08-20T22:39:01.447Z,78.73
2022-08-20T22:42:06.411Z,80.11
2022-08-20T22:45:14.511Z,77.59
2022-08-20T22:48:20.826Z,76.64
2022-08-20T22:51:30.407Z,75.41
2022-08-20T22:54:35.020Z,76.04
2022-08-20T22:57:40.110Z,74.85
2022-08-20T23:00:45.921Z,74.85
2022-08-20T23:03:49.291Z,75.78
2022-08-20T23:06:52.823Z,75.76
2022-08-20T23:09:56.144Z,75.60
2022-08-20T23:13:01.024Z,76.76
2022-08-20T23:16:05.221Z,79.37
2022-08-20T23:19:10.653Z,79.92
2022-08-20T23:22:14.252Z,79.54
2022-08-20T23:25:17.617Z,76.45
2022-08-20T23:28:25.124Z,73.78
2022-08-20T23:31:28.417Z,76.82
2022-08-20T23:34:31.865Z,75.60
2022-08-20T23:37:38.892Z,73.04
2022-08-20T23:40:42.718Z,75.69
2022-08-20T23:43:47.448Z,77.59
2022-08-20T23:46:50.993Z,78.45
2022-08-20T23:49:58.094Z,77.19
2022-08-20T23:53:01.367Z,74.14
2022-08-20T23:56:05.545Z,73.57
2022-08-20T23:59:10.228Z,73.44
